x

Eel River - 17nm Wsw Of Eureka, Ca (46022) Wave Buoy

6:50am - Sat 21st Jan 2017 All times are PST. -8 hours from GMT.

  • Sig Wave height 22.6ft
  • Swell Direction
  • Peak Period 19s
  • Average Period 12s
  • Wind
    22mph, 31mph gusts
  • Sea Temp 52°f
  • Air Temp 51°f
  • Sea Pressure 998.3mb
  • Eel River - 17nm Wsw Of Eureka, Ca
  • Eel River - 17nm Wsw Of Eureka, Ca

More Historic Weather Station data

Upgrade to MSW Pro to gain access to the past 30 days of data for over 8000 Wavebouys and Weather Stations around the globe.

Join Pro

Comparision Forecast

View Surf forecast
   
Sat 01/21 6:50am 22.5ft 19s 12s 22 31 mph 998.3mb 52f 51f
5:50am 23.5ft 17s 12s 22 27 mph 997mb 52f 50f
4:50am 21ft 17s 12s 22 29 mph 996.1mb 52f 51f
3:50am 22ft 17s 12s 20 29 mph 995.3mb 52f 52f
2:50am 24.5ft 16s 12s 20 25 mph 994.6mb 52f 51f
1:50am 24.5ft 16s 12s 18 25 mph 993.3mb 52f 50f
12:50am 24ft 16s 12s 22 27 mph 992.3mb 52f 51f
Fri 01/20 11:50pm 19.5ft 16s 11s 22 29 mph 991.5mb 52f 51f
10:50pm 17.5ft 16s 10s 22 29 mph 991.1mb 52f 51f
9:50pm 19.5ft 16s 10s 20 27 mph 990.9mb 52f 51f
8:50pm 15.5ft 13s 10s 16 22 mph 990.4mb 52f 51f
7:50pm 18.5ft 16s 10s 16 22 mph 989.8mb 52f 51f
6:50pm 17.5ft 15s 10s 16 20 mph 989.1mb 52f 49f
5:50pm 16.5ft 16s 10s 16 20 mph 988.3mb 52f 49f
4:50pm 15ft 13s 9s 16 20 mph 987.8mb 52f 50f
3:50pm 13ft 15s 9s 16 18 mph 987mb 52f 50f
2:50pm 13ft 13s 9s 18 22 mph 986.8mb 52f 49f
1:50pm 13ft 16s 9s 20 22 mph 986.5mb 52f 52f
12:50pm 14ft 15s 9s 20 25 mph 986.7mb 52f 51f
11:50am 15ft 15s 10s 18 22 mph 987.2mb 52f 51f
10:50am 16.5ft 16s 11s 18 25 mph 987.4mb 52f 51f
9:50am 14ft 16s 10s 11 16 mph 987.4mb 52f 50f
8:50am 15ft 15s 10s 18 22 mph 987.2mb 52f 51f
7:50am 15ft 15s 10s 18 22 mph 987mb 52f 51f
6:50am 15ft 16s 10s 18 25 mph 987mb 52f 52f
5:50am 15ft 15s 9s 16 20 mph 986.9mb 52f 52f
4:50am 16ft 16s 9s 25 36 mph 986.6mb 52f 51f
3:50am 16.5ft 16s 10s 25 29 mph 986.4mb 52f 51f
2:50am 15ft 16s 8s 18 27 mph 987.6mb 52f 47f
1:50am 16.5ft 15s 9s 27 34 mph 987.8mb 52f 48f
12:50am 15.5ft 15s 9s 25 31 mph 989.9mb 52f 47f
Thu 01/19 11:50pm 17ft 14s 9s 38 45 mph 993mb 52f 49f
10:50pm 17.5ft 14s 9s 40 54 mph 993.9mb 52f 49f
9:50pm 19ft 15s 9s 36 43 mph 996.3mb 52f 50f
8:50pm 16.5ft 15s 9s 31 40 mph 998.2mb 52f 50f
7:50pm 19.5ft 14s 10s 27 31 mph 1000.2mb 52f 50f
6:50pm 17ft 14s 10s 27 34 mph 1001.7mb 52f 51f
5:50pm 19ft 14s 11s 25 34 mph 1002.9mb 52f 50f
4:50pm 15ft 13s 9s 22 27 mph 1003.9mb 52f 51f
3:50pm 15ft 12s 10s 25 29 mph 1005mb 52f 50f
2:50pm 13ft 14s 9s 18 27 mph 1005.9mb 52f 50f
1:50pm 13.5ft 13s 10s 20 25 mph 1006mb 53f 51f
12:50pm 12ft 14s 9s 20 22 mph 1007mb 52f 51f
11:50am 14ft 14s 10s 16 20 mph 1007.8mb 52f 51f
10:50am 12ft 12s 10s 16 18 mph 1008.3mb 52f 51f
9:50am 12ft 13s 9s 11 13 mph 1008.1mb 52f 51f
8:50am 11ft 12s 9s 11 13 mph 1007.8mb 52f 50f
7:50am 12ft 13s 9s 9 13 mph 1007.1mb 52f 49f
6:50am 12.5ft 13s 9s 13 18 mph 1006.2mb 52f 50f
5:50am 13.5ft 12s 9s 9 11 mph 1005.5mb 52f 49f
4:50am 14ft 11s 9s 16 20 mph 1004.9mb 52f 52f
3:50am 14ft 12s 9s 16 20 mph 1004.9mb 52f 52f
2:50am 14ft 12s 9s 13 16 mph 1004.7mb 52f 52f
1:50am 15ft 13s 9s 22 27 mph 1004.2mb 52f 51f
12:50am 13ft 13s 9s 16 18 mph 1004mb 52f 53f
Wed 01/18 11:50pm 12.5ft 13s 9s 16 20 mph 1003.8mb 52f 53f
10:50pm 14.5ft 11s 10s 16 20 mph 1003.2mb 52f 52f
9:50pm 13ft 13s 9s 16 20 mph 1002.5mb 52f 53f
8:50pm 13ft 13s 9s 16 18 mph 1002mb 52f 53f
7:50pm 13.5ft 12s 9s 16 18 mph 1001.7mb 52f 53f
6:50pm 11.5ft 14s 8s 18 20 mph 1001.1mb 52f 53f
5:50pm 12ft 14s 8s 18 22 mph 1001.1mb 52f 53f
4:50pm 13.5ft 10s 8s 20 27 mph 1000.6mb 52f 53f
3:50pm 15ft 14s 8s 22 31 mph 999.2mb 52f 54f
2:50pm 16ft 11s 8s 29 34 mph 996.8mb 52f 54f
1:50pm 17ft 14s 8s 40 54 mph 996.1mb 51f 53f
12:50pm 17.5ft 14s 8s 49 60 mph 995.4mb 51f 53f
11:50am 15.5ft 13s 7s 49 63 mph 996.4mb 51f 54f
10:50am 18ft 13s 8s 49 60 mph 997.8mb 51f 54f
9:50am 15.5ft 11s 8s 45 60 mph 999.6mb 51f 54f
8:50am 15ft 14s 8s 36 45 mph 1001.7mb 51f 52f
7:50am 15ft 13s 8s 31 38 mph 1002.5mb 51f 53f
6:50am 15ft 14s 8s 36 47 mph 1003.7mb 51f 53f
5:50am 15.5ft 14s 7s 36 47 mph 1004.2mb 51f 52f
4:50am 16.5ft 14s 8s 40 51 mph 1005.1mb 51f 52f
3:50am 17ft 15s 8s 38 47 mph 1005.9mb 51f 54f
2:50am 15.5ft 14s 8s 36 47 mph 1007.5mb 51f 55f
1:50am 15ft 15s 8s 36 45 mph 1008.3mb 51f 53f
12:50am 15.5ft 15s 8s 31 43 mph 1009.7mb 51f 52f
Tue 01/17 11:50pm 16.5ft 15s 8s 31 40 mph 1010mb 51f 52f
10:50pm 14ft 15s 8s 31 40 mph 1010.2mb 51f 52f
9:50pm 14ft 15s 8s 36 43 mph 1010.9mb 51f 51f
8:50pm 14.5ft 13s 8s 38 47 mph 1011.4mb 51f 51f
7:50pm 14ft 15s 8s 34 47 mph 1012mb 51f 51f
6:50pm 13ft 14s 8s 34 40 mph 1012.3mb 51f 52f
5:50pm 14ft 15s 9s 27 34 mph 1013.1mb 51f 53f
4:50pm 11ft 15s 7s 29 38 mph 1013.3mb 51f 53f
3:50pm 11ft 16s 7s 29 36 mph 1013.5mb 51f 52f